Time;durP1;ratioP1;P1;durP2;ratioP2;P2;SDS_P1;SDS_P2;PMS_P1;PMS_P2;Temp;Humidity;BMP_temperature;BMP_pressure;BME280_temperature;BME280_humidity;BME280_pressure;Samples;Min_cycle;Max_cycle;Signal;HPM_P1;HPM_P2
2022/10/05 00:00:26;;;;;;;25.85;4.28;;;;;;;;;;4933497;29;20046;-62
2022/10/05 00:02:54;;;;;;;15.75;3.58;;;;;;;;;;4930965;29;20042;-60
2022/10/05 00:05:24;;;;;;;22.13;4.00;;;;;;;;;;4934907;29;20457;-60
2022/10/05 00:07:51;;;;;;;18.98;3.88;;;;;;;;;;4934538;29;20094;-66
2022/10/05 00:10:19;;;;;;;24.27;4.30;;;;;;;;;;4934428;29;20066;-65
2022/10/05 00:12:46;;;;;;;23.00;4.13;;;;;;;;;;4935396;29;20028;-63
2022/10/05 00:15:17;;;;;;;15.07;4.00;;;;;;;;;;4949566;28;20048;-61
2022/10/05 00:17:44;;;;;;;25.23;4.63;;;;;;;;;;4934571;29;20123;-62
2022/10/05 00:20:17;;;;;;;30.13;7.10;;;;;;;;;;4934643;29;20040;-65
2022/10/05 00:22:44;;;;;;;39.88;7.88;;;;;;;;;;4933997;29;20413;-62
2022/10/05 00:25:13;;;;;;;31.52;8.05;;;;;;;;;;4935082;29;20119;-65
2022/10/05 00:27:40;;;;;;;51.20;10.25;;;;;;;;;;4935119;29;20058;-63
2022/10/05 00:30:13;;;;;;;43.17;9.68;;;;;;;;;;4934969;29;20494;-65
2022/10/05 00:32:41;;;;;;;35.65;10.15;;;;;;;;;;4934902;29;20486;-63
2022/10/05 00:35:08;;;;;;;42.85;9.98;;;;;;;;;;4932383;29;20039;-62
2022/10/05 00:37:35;;;;;;;39.15;8.68;;;;;;;;;;4932638;29;20564;-64
2022/10/05 00:40:03;;;;;;;41.20;9.15;;;;;;;;;;4932824;29;20051;-65
2022/10/05 00:42:42;;;;;;;36.95;8.73;;;;;;;;;;4933294;29;20107;-62
2022/10/05 00:45:21;;;;;;;29.35;8.13;;;;;;;;;;4932194;29;20071;-65
2022/10/05 00:48:06;;;;;;;36.38;8.73;;;;;;;;;;4931896;29;20031;-62
2022/10/05 00:50:33;;;;;;;39.65;7.97;;;;;;;;;;4933963;29;20090;-65
2022/10/05 00:53:21;;;;;;;37.35;7.22;;;;;;;;;;4933526;29;20031;-64
2022/10/05 00:56:05;;;;;;;35.15;7.85;;;;;;;;;;4933972;29;20028;-63
2022/10/05 00:58:35;;;;;;;40.45;7.20;;;;;;;;;;4936821;29;20035;-65
2022/10/05 01:01:14;;;;;;;38.33;8.38;;;;;;;;;;4934995;29;20035;-65
2022/10/05 01:03:51;;;;;;;66.78;15.20;;;;;;;;;;4937663;29;20031;-63
2022/10/05 01:06:31;;;;;;;107.40;23.45;;;;;;;;;;4937720;29;20032;-64
2022/10/05 01:08:58;;;;;;;118.68;30.27;;;;;;;;;;4937695;29;20087;-63
2022/10/05 01:11:25;;;;;;;140.98;33.38;;;;;;;;;;4936561;29;20027;-63
2022/10/05 01:13:52;;;;;;;173.65;48.63;;;;;;;;;;4931733;29;20047;-65
2022/10/05 01:16:28;;;;;;;151.70;46.15;;;;;;;;;;4932008;29;20454;-64
2022/10/05 01:19:13;;;;;;;155.50;46.40;;;;;;;;;;4929855;29;20047;-65
2022/10/05 01:21:49;;;;;;;138.27;42.33;;;;;;;;;;4929647;29;20084;-63
2022/10/05 01:24:34;;;;;;;135.05;41.22;;;;;;;;;;4929810;29;20683;-65
2022/10/05 01:27:19;;;;;;;124.60;38.33;;;;;;;;;;4936797;29;20024;-64
2022/10/05 01:29:56;;;;;;;117.13;37.20;;;;;;;;;;4933251;29;20106;-63
2022/10/05 01:32:33;;;;;;;113.10;38.53;;;;;;;;;;4930201;29;20028;-65
2022/10/05 01:35:16;;;;;;;128.32;38.75;;;;;;;;;;4927173;29;20111;-63
2022/10/05 01:37:46;;;;;;;116.13;36.95;;;;;;;;;;4940733;29;20569;-65
2022/10/05 01:40:13;;;;;;;102.25;34.33;;;;;;;;;;4952571;28;20054;-64
2022/10/05 01:42:40;;;;;;;94.72;29.75;;;;;;;;;;4948710;28;20055;-65
2022/10/05 01:45:25;;;;;;;83.95;25.30;;;;;;;;;;4946408;29;20041;-63
2022/10/05 01:48:08;;;;;;;82.28;27.33;;;;;;;;;;4944311;29;20067;-65
2022/10/05 01:50:41;;;;;;;74.60;23.60;;;;;;;;;;4943975;29;20119;-64
2022/10/05 01:53:15;;;;;;;76.80;23.85;;;;;;;;;;4943827;29;20042;-65
2022/10/05 01:55:49;;;;;;;49.55;16.52;;;;;;;;;;4958511;28;20390;-64
2022/10/05 01:58:22;;;;;;;67.28;23.48;;;;;;;;;;4946473;29;20026;-64
2022/10/05 02:00:58;;;;;;;66.22;21.98;;;;;;;;;;4947284;28;20490;-65
2022/10/05 02:03:31;;;;;;;64.53;21.27;;;;;;;;;;4967707;28;20031;-64
2022/10/05 02:06:00;;;;;;;58.75;22.00;;;;;;;;;;4934290;29;20030;-64
2022/10/05 02:08:39;;;;;;;60.58;19.42;;;;;;;;;;4935227;29;20501;-64
2022/10/05 02:11:07;;;;;;;67.00;19.88;;;;;;;;;;4937381;29;20028;-65
2022/10/05 02:13:34;;;;;;;63.50;19.52;;;;;;;;;;4937439;29;20457;-65
2022/10/05 02:16:03;;;;;;;52.28;19.45;;;;;;;;;;4938022;29;20063;-64
2022/10/05 02:18:53;;;;;;;61.72;19.05;;;;;;;;;;4952477;29;20027;-65
2022/10/05 02:21:21;;;;;;;64.45;20.30;;;;;;;;;;4928040;29;20589;-65
2022/10/05 02:23:50;;;;;;;58.25;17.98;;;;;;;;;;4937889;29;20149;-65
2022/10/05 02:26:19;;;;;;;51.20;17.35;;;;;;;;;;4937838;29;20478;-65
2022/10/05 02:28:59;;;;;;;50.63;16.73;;;;;;;;;;4937768;29;20027;-65
2022/10/05 02:31:35;;;;;;;49.45;15.95;;;;;;;;;;4937674;29;20094;-64
2022/10/05 02:34:22;;;;;;;49.15;16.35;;;;;;;;;;4937699;29;20035;-65
2022/10/05 02:36:52;;;;;;;52.70;17.05;;;;;;;;;;4937566;29;20023;-65
2022/10/05 02:39:23;;;;;;;44.38;15.43;;;;;;;;;;4937510;29;20043;-65
2022/10/05 02:42:02;;;;;;;54.42;16.77;;;;;;;;;;4937453;29;20039;-65
2022/10/05 02:44:41;;;;;;;45.35;16.23;;;;;;;;;;4937455;29;20034;-65
2022/10/05 02:47:17;;;;;;;49.13;15.85;;;;;;;;;;4937435;29;20028;-65
2022/10/05 02:50:10;;;;;;;43.20;15.20;;;;;;;;;;4937354;29;20035;-65
2022/10/05 02:52:56;;;;;;;43.25;15.23;;;;;;;;;;4929178;29;20039;-65
2022/10/05 02:55:31;;;;;;;37.45;13.48;;;;;;;;;;4937247;29;20027;-65
2022/10/05 02:58:21;;;;;;;37.67;13.73;;;;;;;;;;4937225;29;20084;-65
2022/10/05 03:00:55;;;;;;;38.08;13.93;;;;;;;;;;4937001;29;20040;-65
2022/10/05 03:03:34;;;;;;;40.38;13.38;;;;;;;;;;4937127;29;20450;-65
2022/10/05 03:06:03;;;;;;;40.92;13.98;;;;;;;;;;4937082;29;20024;-65
2022/10/05 03:08:41;;;;;;;33.50;13.10;;;;;;;;;;4951776;29;20043;-65
2022/10/05 03:11:31;;;;;;;34.78;12.27;;;;;;;;;;4936948;29;20522;-65
2022/10/05 03:14:12;;;;;;;36.33;11.80;;;;;;;;;;4933975;29;20052;-65
2022/10/05 03:16:57;;;;;;;32.92;12.50;;;;;;;;;;4936860;29;20019;-65
2022/10/05 03:19:42;;;;;;;28.85;10.95;;;;;;;;;;4936760;29;20099;-65
2022/10/05 03:22:17;;;;;;;33.83;12.75;;;;;;;;;;4936764;29;20039;-65
2022/10/05 03:24:57;;;;;;;28.45;11.15;;;;;;;;;;4936723;29;20554;-65
2022/10/05 03:27:24;;;;;;;26.65;10.65;;;;;;;;;;4936697;29;20038;-65
2022/10/05 03:29:54;;;;;;;30.33;11.57;;;;;;;;;;4936583;29;20565;-65
2022/10/05 03:32:28;;;;;;;34.83;11.18;;;;;;;;;;4936485;29;20034;-65
2022/10/05 03:35:18;;;;;;;24.98;10.88;;;;;;;;;;4936564;29;20051;-65
2022/10/05 03:37:57;;;;;;;24.63;10.13;;;;;;;;;;4933736;29;20082;-65
2022/10/05 03:40:42;;;;;;;21.35;9.68;;;;;;;;;;4936365;29;20042;-65
2022/10/05 03:43:31;;;;;;;25.27;9.32;;;;;;;;;;4936390;29;20044;-65
2022/10/05 03:46:04;;;;;;;30.30;10.00;;;;;;;;;;4936282;29;20035;-65
2022/10/05 03:48:54;;;;;;;30.85;10.38;;;;;;;;;;4936351;29;20028;-65
2022/10/05 03:51:21;;;;;;;23.10;9.27;;;;;;;;;;4926446;29;20063;-65
2022/10/05 03:53:51;;;;;;;23.65;8.93;;;;;;;;;;4936225;29;20023;-65
2022/10/05 03:56:30;;;;;;;23.15;8.88;;;;;;;;;;4936188;29;20383;-65
2022/10/05 03:59:00;;;;;;;21.67;8.60;;;;;;;;;;4936092;29;20039;-65
2022/10/05 04:01:36;;;;;;;21.33;8.30;;;;;;;;;;4936042;29;20027;-65
2022/10/05 04:04:05;;;;;;;21.30;8.35;;;;;;;;;;4936054;29;20479;-65
2022/10/05 04:06:39;;;;;;;20.52;8.25;;;;;;;;;;4935978;29;20043;-65
2022/10/05 04:09:11;;;;;;;18.58;7.60;;;;;;;;;;4935982;29;20028;-65
2022/10/05 04:11:56;;;;;;;22.27;7.57;;;;;;;;;;4935916;29;20030;-65
2022/10/05 04:14:23;;;;;;;19.33;7.32;;;;;;;;;;4935679;29;20043;-65
2022/10/05 04:17:01;;;;;;;20.20;7.63;;;;;;;;;;4935753;29;20397;-65
2022/10/05 04:19:44;;;;;;;18.98;7.90;;;;;;;;;;4934615;29;20058;-65
2022/10/05 04:22:11;;;;;;;18.48;6.85;;;;;;;;;;4935734;29;20028;-65
2022/10/05 04:24:44;;;;;;;17.75;6.43;;;;;;;;;;4935758;29;20024;-65
2022/10/05 04:27:14;;;;;;;16.85;6.88;;;;;;;;;;4935716;29;20107;-65
2022/10/05 04:29:53;;;;;;;16.30;6.55;;;;;;;;;;4935704;29;20032;-65
2022/10/05 04:32:30;;;;;;;21.67;7.47;;;;;;;;;;4935170;29;20106;-65
2022/10/05 04:34:57;;;;;;;19.42;7.07;;;;;;;;;;4935559;29;20493;-65
2022/10/05 04:37:35;;;;;;;13.90;6.28;;;;;;;;;;4935640;29;20393;-65
2022/10/05 04:40:15;;;;;;;16.65;6.15;;;;;;;;;;4935537;29;20036;-65
2022/10/05 04:43:02;;;;;;;14.00;6.60;;;;;;;;;;4935430;29;20498;-65
2022/10/05 04:45:52;;;;;;;15.45;6.13;;;;;;;;;;4931959;29;20082;-65
2022/10/05 04:48:37;;;;;;;16.60;6.18;;;;;;;;;;4925692;29;20043;-65
2022/10/05 04:51:22;;;;;;;14.73;6.55;;;;;;;;;;4935364;29;20035;-63
2022/10/05 04:53:52;;;;;;;16.85;5.82;;;;;;;;;;4935435;29;20137;-63
2022/10/05 04:56:21;;;;;;;19.23;6.13;;;;;;;;;;4935417;29;20103;-63
2022/10/05 04:59:06;;;;;;;13.98;5.93;;;;;;;;;;4935294;29;20103;-63
2022/10/05 05:01:36;;;;;;;14.48;5.65;;;;;;;;;;4935238;29;20086;-63
2022/10/05 05:04:21;;;;;;;15.85;5.97;;;;;;;;;;4935360;29;20047;-63
2022/10/05 05:06:57;;;;;;;13.70;5.43;;;;;;;;;;4935381;29;20035;-63
2022/10/05 05:09:42;;;;;;;16.17;5.40;;;;;;;;;;4935335;29;20390;-63
2022/10/05 05:12:18;;;;;;;12.20;5.00;;;;;;;;;;4935251;29;20099;-63
2022/10/05 05:14:57;;;;;;;14.32;5.57;;;;;;;;;;4935039;29;20514;-63
2022/10/05 05:17:33;;;;;;;13.60;5.57;;;;;;;;;;4935252;29;20028;-63
2022/10/05 05:20:09;;;;;;;14.45;5.40;;;;;;;;;;4935116;29;20039;-63
2022/10/05 05:22:44;;;;;;;13.63;5.25;;;;;;;;;;4935138;29;20090;-63
2022/10/05 05:25:21;;;;;;;12.50;4.45;;;;;;;;;;4935185;29;20024;-63
2022/10/05 05:28:01;;;;;;;13.43;5.28;;;;;;;;;;4935156;29;20078;-63
2022/10/05 05:30:40;;;;;;;13.32;4.88;;;;;;;;;;4935025;29;20024;-63
2022/10/05 05:33:33;;;;;;;12.02;4.75;;;;;;;;;;4935108;29;20486;-63
2022/10/05 05:36:09;;;;;;;16.30;5.03;;;;;;;;;;4935083;29;20385;-63
2022/10/05 05:38:38;;;;;;;11.38;4.60;;;;;;;;;;4934948;29;20167;-63
2022/10/05 05:41:24;;;;;;;13.30;4.50;;;;;;;;;;4934948;29;20036;-63
2022/10/05 05:44:09;;;;;;;8.80;4.68;;;;;;;;;;4935292;29;20027;-63
2022/10/05 05:46:38;;;;;;;9.77;4.53;;;;;;;;;;4938516;29;20024;-63
2022/10/05 05:49:18;;;;;;;11.50;4.70;;;;;;;;;;4938492;29;20513;-63
2022/10/05 05:52:10;;;;;;;10.95;3.90;;;;;;;;;;4938383;29;20479;-63
2022/10/05 05:54:37;;;;;;;;;;;;;;;;;;4930656;29;20044;-63
2022/10/05 05:57:22;;;;;;;10.95;4.72;;;;;;;;;;4938411;29;19911;-63
2022/10/05 05:59:52;;;;;;;11.80;4.47;;;;;;;;;;4938298;29;20118;-63
2022/10/05 06:02:31;;;;;;;8.13;3.50;;;;;;;;;;4936279;29;20122;-64
2022/10/05 06:05:02;;;;;;;12.32;4.30;;;;;;;;;;4938263;29;20437;-65
2022/10/05 06:07:31;;;;;;;10.43;4.07;;;;;;;;;;4938245;29;20055;-65
2022/10/05 06:10:04;;;;;;;11.88;4.10;;;;;;;;;;4936896;29;20035;-65
2022/10/05 06:12:44;;;;;;;13.30;4.57;;;;;;;;;;4938045;29;20091;-65
2022/10/05 06:15:28;;;;;;;10.48;4.43;;;;;;;;;;4937758;29;20574;-65
2022/10/05 06:17:59;;;;;;;9.18;3.90;;;;;;;;;;4937993;29;20028;-65
2022/10/05 06:20:47;;;;;;;9.95;4.30;;;;;;;;;;4937720;29;20039;-65
2022/10/05 06:23:18;;;;;;;10.63;4.13;;;;;;;;;;4937892;29;20024;-65
2022/10/05 06:26:02;;;;;;;9.68;4.30;;;;;;;;;;4937875;29;20055;-65
2022/10/05 06:28:29;;;;;;;9.70;3.97;;;;;;;;;;4937875;29;20036;-65
2022/10/05 06:33:42;;;;;;;11.52;4.18;;;;;;;;;;4946621;29;20142;-66
2022/10/05 06:36:18;;;;;;;10.25;4.30;;;;;;;;;;4956849;28;20026;-66
2022/10/05 06:38:57;;;;;;;8.27;4.07;;;;;;;;;;4956779;28;20107;-66
2022/10/05 06:41:36;;;;;;;9.75;4.03;;;;;;;;;;4956724;29;20470;-66
2022/10/05 06:44:03;;;;;;;7.97;3.90;;;;;;;;;;4956818;28;20031;-66
2022/10/05 06:46:36;;;;;;;9.00;4.20;;;;;;;;;;4956729;28;20141;-66
2022/10/05 06:49:09;;;;;;;9.80;4.43;;;;;;;;;;4956687;28;20066;-66
2022/10/05 06:51:55;;;;;;;7.22;4.03;;;;;;;;;;4956540;28;20444;-66
2022/10/05 06:54:54;;;;;;;7.57;4.55;;;;;;;;;;4956540;28;20118;-66
2022/10/05 06:57:35;;;;;;;7.63;4.05;;;;;;;;;;4944950;28;20074;-66
2022/10/05 07:00:02;;;;;;;10.38;4.32;;;;;;;;;;4956353;28;20031;-66
2022/10/05 07:02:49;;;;;;;10.27;4.60;;;;;;;;;;4956227;28;20485;-66
2022/10/05 07:05:34;;;;;;;10.85;4.45;;;;;;;;;;4945643;28;20038;-66
2022/10/05 07:08:05;;;;;;;8.13;4.03;;;;;;;;;;4956262;28;20023;-66
2022/10/05 07:10:38;;;;;;;8.95;4.28;;;;;;;;;;4956257;28;20036;-66
2022/10/05 07:13:08;;;;;;;8.27;3.97;;;;;;;;;;4956150;28;20114;-66
2022/10/05 07:15:35;;;;;;;7.05;3.95;;;;;;;;;;4956229;28;20093;-66
2022/10/05 07:18:02;;;;;;;6.72;3.72;;;;;;;;;;4956101;28;20485;-66
2022/10/05 07:20:29;;;;;;;8.23;3.97;;;;;;;;;;4956020;28;20027;-66
2022/10/05 07:22:58;;;;;;;9.35;4.43;;;;;;;;;;4955942;28;20038;-66
2022/10/05 07:25:37;;;;;;;8.35;4.55;;;;;;;;;;4956017;28;20019;-66
2022/10/05 07:28:09;;;;;;;8.63;4.07;;;;;;;;;;4955962;28;20401;-66
2022/10/05 07:30:35;;;;;;;;;;;;;;;;;;4956309;28;20528;-66
2022/10/05 07:33:05;;;;;;;8.80;4.18;;;;;;;;;;4955569;28;19925;-66
2022/10/05 07:38:38;;;;;;;8.43;4.20;;;;;;;;;;4955944;29;20393;-66
2022/10/05 07:41:06;;;;;;;8.05;3.90;;;;;;;;;;4955604;28;20039;-66
2022/10/05 07:43:40;;;;;;;8.15;3.90;;;;;;;;;;4955597;28;20143;-66
2022/10/05 07:46:19;;;;;;;10.38;4.32;;;;;;;;;;4955542;28;20114;-66
2022/10/05 07:48:56;;;;;;;9.80;4.35;;;;;;;;;;4955521;28;20493;-66
2022/10/05 07:51:40;;;;;;;8.82;4.25;;;;;;;;;;4954105;29;20374;-67
2022/10/05 07:54:19;;;;;;;8.48;4.20;;;;;;;;;;4955479;28;20037;-66
2022/10/05 07:56:49;;;;;;;9.38;4.45;;;;;;;;;;4955335;28;20026;-66
2022/10/05 07:59:22;;;;;;;10.82;4.90;;;;;;;;;;4955332;28;20035;-66
2022/10/05 08:01:54;;;;;;;8.05;4.45;;;;;;;;;;4955301;28;20038;-66
2022/10/05 08:04:59;;;;;;;8.00;4.27;;;;;;;;;;4955332;28;20082;-66
2022/10/05 08:07:28;;;;;;;9.27;4.28;;;;;;;;;;4933315;29;20267;-66
2022/10/05 08:10:02;;;;;;;9.38;4.43;;;;;;;;;;4933956;29;20536;-67
2022/10/05 08:12:29;;;;;;;8.93;4.43;;;;;;;;;;4945364;28;20564;-67
2022/10/05 08:15:15;;;;;;;8.80;4.13;;;;;;;;;;4955163;28;20035;-66
2022/10/05 08:18:09;;;;;;;9.00;4.10;;;;;;;;;;4953683;29;20409;-66
2022/10/05 08:20:44;;;;;;;9.60;4.68;;;;;;;;;;4946874;28;20051;-67
2022/10/05 08:23:23;;;;;;;8.68;4.57;;;;;;;;;;4954876;28;20054;-66
2022/10/05 08:25:52;;;;;;;8.55;4.47;;;;;;;;;;4954983;28;20051;-66
2022/10/05 08:28:25;;;;;;;7.65;4.53;;;;;;;;;;4954968;28;20080;-66
2022/10/05 08:30:59;;;;;;;6.95;4.18;;;;;;;;;;4954988;28;20388;-66
2022/10/05 08:33:27;;;;;;;8.60;4.03;;;;;;;;;;4954665;28;20382;-66
2022/10/05 08:36:06;;;;;;;6.95;4.10;;;;;;;;;;4954902;28;20090;-66
2022/10/05 08:38:33;;;;;;;7.82;4.10;;;;;;;;;;4954857;28;20066;-66
2022/10/05 08:41:29;;;;;;;7.88;4.25;;;;;;;;;;4954633;28;20032;-67
2022/10/05 08:44:28;;;;;;;9.90;4.47;;;;;;;;;;4954743;28;20040;-66
2022/10/05 08:46:55;;;;;;;9.45;4.32;;;;;;;;;;4954533;29;20030;-67
2022/10/05 08:49:22;;;;;;;7.82;4.10;;;;;;;;;;4954719;28;20033;-67
2022/10/05 08:52:12;;;;;;;9.52;4.20;;;;;;;;;;4954562;28;20496;-67
2022/10/05 08:54:42;;;;;;;9.25;4.07;;;;;;;;;;4951726;28;20130;-67
2022/10/05 08:57:18;;;;;;;7.50;4.30;;;;;;;;;;4954596;28;20393;-66
2022/10/05 09:00:13;;;;;;;9.20;4.70;;;;;;;;;;4954512;28;20031;-66
2022/10/05 09:02:59;;;;;;;8.00;4.25;;;;;;;;;;4950046;28;20047;-66
2022/10/05 09:05:48;;;;;;;10.68;4.38;;;;;;;;;;4954576;28;20027;-67
2022/10/05 09:08:19;;;;;;;8.30;3.90;;;;;;;;;;4944632;28;20229;-67
2022/10/05 09:10:46;;;;;;;7.03;3.80;;;;;;;;;;4954561;28;20157;-67
2022/10/05 09:13:13;;;;;;;8.65;4.18;;;;;;;;;;4954425;28;20023;-67
2022/10/05 09:15:46;;;;;;;6.93;3.90;;;;;;;;;;4954043;28;20366;-67
2022/10/05 09:18:16;;;;;;;9.55;4.85;;;;;;;;;;4955320;28;20045;-68
2022/10/05 09:20:43;;;;;;;6.47;3.80;;;;;;;;;;4958157;28;20031;-67
2022/10/05 09:23:18;;;;;;;7.75;3.88;;;;;;;;;;4958099;28;20054;-67
2022/10/05 09:26:05;;;;;;;9.70;4.75;;;;;;;;;;4957998;28;20485;-67
2022/10/05 09:28:53;;;;;;;9.55;5.00;;;;;;;;;;4933261;29;20383;-67
2022/10/05 09:31:26;;;;;;;12.25;5.35;;;;;;;;;;4938022;29;20027;-67
2022/10/05 09:34:15;;;;;;;9.57;5.25;;;;;;;;;;4938266;29;20433;-67
2022/10/05 09:36:49;;;;;;;9.05;4.85;;;;;;;;;;4938166;29;20130;-67
2022/10/05 09:39:34;;;;;;;13.60;5.65;;;;;;;;;;4937966;29;20059;-67
2022/10/05 09:42:10;;;;;;;9.38;5.28;;;;;;;;;;4935784;29;20027;-67
2022/10/05 09:44:55;;;;;;;9.25;5.10;;;;;;;;;;4938623;29;20390;-67
2022/10/05 09:47:35;;;;;;;8.65;5.03;;;;;;;;;;4938593;29;20028;-67
2022/10/05 09:50:21;;;;;;;9.07;5.20;;;;;;;;;;4938522;29;20809;-67
2022/10/05 09:52:48;;;;;;;8.18;5.00;;;;;;;;;;4938447;29;20031;-67
2022/10/05 09:55:22;;;;;;;9.73;5.50;;;;;;;;;;4938466;29;20056;-67
2022/10/05 09:57:55;;;;;;;9.27;5.30;;;;;;;;;;4938388;29;20091;-67
2022/10/05 10:00:43;;;;;;;8.50;5.00;;;;;;;;;;4938327;29;20087;-67
2022/10/05 10:03:19;;;;;;;9.98;5.07;;;;;;;;;;4938373;29;20031;-67
2022/10/05 10:05:46;;;;;;;10.43;4.60;;;;;;;;;;4938335;29;20027;-67
2022/10/05 10:08:31;;;;;;;9.63;4.68;;;;;;;;;;4938280;29;20024;-67
2022/10/05 10:11:18;;;;;;;9.40;5.10;;;;;;;;;;4938121;29;20520;-67
2022/10/05 10:13:52;;;;;;;10.00;5.57;;;;;;;;;;4918168;29;20032;-67
2022/10/05 10:16:27;;;;;;;9.45;5.15;;;;;;;;;;4938168;29;20385;-67
2022/10/05 10:19:05;;;;;;;10.35;5.00;;;;;;;;;;4936792;29;20450;-67
2022/10/05 10:21:50;;;;;;;8.48;4.88;;;;;;;;;;4937929;29;20111;-67
2022/10/05 10:24:20;;;;;;;8.35;5.10;;;;;;;;;;4937977;29;20435;-67
2022/10/05 10:26:53;;;;;;;10.27;5.25;;;;;;;;;;4937974;29;20043;-67
2022/10/05 10:29:20;;;;;;;8.82;5.20;;;;;;;;;;4937568;29;20035;-67
2022/10/05 10:31:47;;;;;;;9.10;5.20;;;;;;;;;;4937131;29;20047;-67
2022/10/05 10:34:15;;;;;;;8.38;5.25;;;;;;;;;;4937763;29;20042;-67
2022/10/05 10:36:50;;;;;;;7.47;4.90;;;;;;;;;;4937727;29;20035;-67
2022/10/05 10:39:17;;;;;;;9.35;5.32;;;;;;;;;;4937649;29;20039;-67
2022/10/05 10:42:06;;;;;;;9.50;4.97;;;;;;;;;;4937601;29;20415;-67
2022/10/05 10:44:52;;;;;;;8.80;4.75;;;;;;;;;;4937648;29;20031;-67
2022/10/05 10:47:22;;;;;;;11.55;5.10;;;;;;;;;;4937603;29;20090;-67
2022/10/05 10:50:04;;;;;;;7.57;4.88;;;;;;;;;;4937520;29;20031;-67
2022/10/05 10:52:37;;;;;;;8.35;5.03;;;;;;;;;;4937390;29;20023;-67
2022/10/05 10:55:16;;;;;;;8.63;4.60;;;;;;;;;;4937464;29;20063;-67
2022/10/05 10:58:01;;;;;;;8.38;4.65;;;;;;;;;;4937361;29;20024;-67
2022/10/05 11:00:50;;;;;;;8.52;5.22;;;;;;;;;;4937211;29;20111;-67
2022/10/05 11:03:36;;;;;;;9.82;5.10;;;;;;;;;;4937285;29;20027;-67
2022/10/05 11:06:03;;;;;;;7.88;4.75;;;;;;;;;;4937258;29;20043;-67
2022/10/05 11:08:30;;;;;;;8.80;4.85;;;;;;;;;;4937105;29;20504;-67
2022/10/05 11:11:05;;;;;;;8.10;4.80;;;;;;;;;;4937042;29;20023;-67
2022/10/05 11:13:46;;;;;;;9.45;4.97;;;;;;;;;;4937116;29;20019;-67
2022/10/05 11:16:28;;;;;;;8.02;4.72;;;;;;;;;;4937031;29;20032;-67
2022/10/05 11:19:07;;;;;;;7.80;4.65;;;;;;;;;;4936575;29;20038;-67
2022/10/05 11:21:36;;;;;;;7.03;4.30;;;;;;;;;;4928308;29;20035;-67
2022/10/05 11:24:22;;;;;;;8.73;4.28;;;;;;;;;;4936875;29;20036;-67
2022/10/05 11:27:02;;;;;;;9.65;5.13;;;;;;;;;;4935537;29;20032;-67
2022/10/05 11:29:48;;;;;;;7.45;4.65;;;;;;;;;;4936668;29;20035;-65
2022/10/05 11:32:37;;;;;;;7.78;4.70;;;;;;;;;;4935984;29;20424;-66
2022/10/05 11:35:30;;;;;;;7.00;4.47;;;;;;;;;;4916599;29;20505;-66
2022/10/05 11:38:09;;;;;;;7.65;4.50;;;;;;;;;;4934002;29;20472;-67
2022/10/05 11:40:49;;;;;;;9.43;4.35;;;;;;;;;;4935781;29;20142;-67
2022/10/05 11:43:28;;;;;;;10.00;4.40;;;;;;;;;;4935906;29;20182;-67
2022/10/05 11:46:00;;;;;;;9.95;5.00;;;;;;;;;;4935843;29;20036;-67
2022/10/05 11:48:39;;;;;;;7.80;4.53;;;;;;;;;;4935874;29;20390;-67
2022/10/05 11:51:09;;;;;;;10.68;4.75;;;;;;;;;;4933530;29;20466;-67
2022/10/05 11:53:43;;;;;;;10.85;4.20;;;;;;;;;;4935739;29;20035;-67
2022/10/05 11:56:23;;;;;;;8.18;4.32;;;;;;;;;;4933195;29;20026;-67
2022/10/05 11:58:53;;;;;;;8.75;4.30;;;;;;;;;;4933062;29;20027;-67
2022/10/05 12:01:23;;;;;;;6.85;4.40;;;;;;;;;;4935753;29;20039;-67
2022/10/05 12:04:19;;;;;;;16.42;4.90;;;;;;;;;;4936133;29;20079;-67
2022/10/05 12:06:53;;;;;;;7.95;4.13;;;;;;;;;;4930658;29;20155;-68
2022/10/05 12:12:39;;;;;;;11.25;4.68;;;;;;;;;;4935949;29;20047;-68
2022/10/05 12:15:13;;;;;;;6.00;3.95;;;;;;;;;;4935970;29;20087;-68
2022/10/05 12:17:49;;;;;;;11.82;4.68;;;;;;;;;;4935951;29;20046;-68
2022/10/05 12:20:28;;;;;;;6.57;4.18;;;;;;;;;;4935897;29;20126;-67
2022/10/05 12:22:58;;;;;;;7.72;4.03;;;;;;;;;;4935798;29;20051;-67
2022/10/05 12:25:30;;;;;;;8.35;3.95;;;;;;;;;;4935856;29;20079;-68
2022/10/05 12:27:59;;;;;;;10.13;4.50;;;;;;;;;;4934608;29;20040;-68
2022/10/05 12:30:26;;;;;;;7.38;3.90;;;;;;;;;;4935808;29;20043;-68
2022/10/05 12:32:58;;;;;;;6.57;3.67;;;;;;;;;;4935475;29;20043;-68
2022/10/05 12:35:32;;;;;;;10.90;4.22;;;;;;;;;;4935786;29;20502;-67
2022/10/05 12:38:03;;;;;;;7.57;4.18;;;;;;;;;;4935679;29;20039;-67
2022/10/05 12:40:36;;;;;;;6.68;4.20;;;;;;;;;;4934203;29;20508;-67
2022/10/05 12:43:26;;;;;;;6.13;3.67;;;;;;;;;;4935633;29;20032;-67
2022/10/05 12:45:59;;;;;;;8.40;4.28;;;;;;;;;;4934448;29;20035;-68
2022/10/05 12:48:31;;;;;;;8.95;4.30;;;;;;;;;;4935593;29;20027;-67
2022/10/05 12:51:01;;;;;;;11.60;3.63;;;;;;;;;;4935491;29;20034;-67
2022/10/05 12:53:47;;;;;;;7.25;4.25;;;;;;;;;;4935134;29;20111;-68
2022/10/05 12:56:23;;;;;;;5.68;3.70;;;;;;;;;;4935489;29;20028;-68
2022/10/05 12:59:04;;;;;;;8.38;3.80;;;;;;;;;;4935418;29;20106;-68
2022/10/05 13:01:51;;;;;;;10.63;4.03;;;;;;;;;;4935324;29;20036;-67
2022/10/05 13:04:27;;;;;;;4.93;3.15;;;;;;;;;;4933712;29;20062;-67
2022/10/05 13:06:54;;;;;;;7.13;3.75;;;;;;;;;;4935328;29;20114;-67
2022/10/05 13:09:21;;;;;;;6.57;3.35;;;;;;;;;;4935364;29;20106;-67
2022/10/05 13:11:50;;;;;;;6.85;3.53;;;;;;;;;;4935245;29;20039;-67
2022/10/05 13:14:19;;;;;;;5.60;3.38;;;;;;;;;;4935308;29;20467;-67
2022/10/05 13:17:05;;;;;;;5.55;3.50;;;;;;;;;;4935323;29;20063;-67
2022/10/05 13:19:31;;;;;;;7.07;3.30;;;;;;;;;;4935181;29;20039;-67
2022/10/05 13:22:01;;;;;;;5.13;3.42;;;;;;;;;;4935192;29;20035;-67
2022/10/05 13:24:37;;;;;;;6.43;3.70;;;;;;;;;;4935271;29;20126;-68
2022/10/05 13:27:20;;;;;;;6.25;3.55;;;;;;;;;;4935306;29;20027;-67
2022/10/05 13:30:07;;;;;;;6.20;3.20;;;;;;;;;;4935229;29;20039;-68
2022/10/05 13:32:57;;;;;;;7.28;3.20;;;;;;;;;;4934918;29;20048;-68
2022/10/05 13:35:42;;;;;;;5.30;3.33;;;;;;;;;;4932149;29;20039;-68
2022/10/05 13:38:21;;;;;;;12.35;3.60;;;;;;;;;;4923420;29;20118;-68
2022/10/05 13:40:48;;;;;;;7.20;3.25;;;;;;;;;;4915918;29;20036;-67
2022/10/05 13:43:23;;;;;;;7.82;2.80;;;;;;;;;;4928906;29;20047;-65
2022/10/05 13:45:50;;;;;;;5.72;2.70;;;;;;;;;;4933862;29;20039;-63
2022/10/05 13:48:21;;;;;;;4.00;2.90;;;;;;;;;;4934951;29;20064;-63
2022/10/05 13:50:54;;;;;;;7.32;2.85;;;;;;;;;;4934040;29;20048;-63
2022/10/05 13:53:40;;;;;;;8.27;3.05;;;;;;;;;;4934261;29;20050;-64
2022/10/05 13:56:10;;;;;;;8.25;3.08;;;;;;;;;;4934855;29;20030;-63
2022/10/05 13:58:46;;;;;;;10.07;2.95;;;;;;;;;;4934828;29;20542;-65
2022/10/05 14:01:16;;;;;;;6.38;2.60;;;;;;;;;;4928472;29;20111;-66
2022/10/05 14:04:03;;;;;;;6.85;3.10;;;;;;;;;;4915095;29;20035;-63
2022/10/05 14:06:30;;;;;;;17.77;3.25;;;;;;;;;;4918547;29;20132;-65
2022/10/05 14:08:58;;;;;;;12.38;3.17;;;;;;;;;;4919179;29;20020;-67
2022/10/05 14:11:30;;;;;;;11.07;3.17;;;;;;;;;;4935735;29;20035;-66
2022/10/05 14:14:03;;;;;;;10.30;3.00;;;;;;;;;;4937040;29;20486;-65
2022/10/05 14:16:32;;;;;;;10.55;3.53;;;;;;;;;;4937987;29;20122;-66
2022/10/05 14:19:13;;;;;;;7.93;2.67;;;;;;;;;;4937930;29;20042;-64
2022/10/05 14:21:48;;;;;;;11.30;2.92;;;;;;;;;;4936126;29;20044;-69
2022/10/05 14:24:35;;;;;;;5.53;2.88;;;;;;;;;;4937805;29;20040;-65
2022/10/05 14:27:17;;;;;;;9.40;2.85;;;;;;;;;;4937791;29;20500;-65
2022/10/05 14:29:44;;;;;;;8.32;3.05;;;;;;;;;;4937783;29;20042;-68
2022/10/05 14:32:15;;;;;;;9.65;2.97;;;;;;;;;;4935819;29;20075;-63
2022/10/05 14:34:45;;;;;;;12.90;2.45;;;;;;;;;;4937233;29;20110;-62
2022/10/05 14:37:24;;;;;;;13.77;3.65;;;;;;;;;;4937618;29;20049;-66
2022/10/05 14:39:52;;;;;;;14.13;3.47;;;;;;;;;;4937568;29;20038;-65
2022/10/05 14:42:20;;;;;;;11.65;2.80;;;;;;;;;;4936416;29;20043;-61
2022/10/05 14:45:07;;;;;;;12.63;3.13;;;;;;;;;;4937146;29;20394;-62
2022/10/05 14:47:44;;;;;;;22.77;3.40;;;;;;;;;;4929643;29;20044;-66
2022/10/05 14:50:16;;;;;;;32.42;3.58;;;;;;;;;;4936065;29;20040;-65
2022/10/05 14:52:47;;;;;;;28.05;3.63;;;;;;;;;;4936626;29;20434;-66
2022/10/05 14:55:46;;;;;;;32.72;3.90;;;;;;;;;;4936416;29;20470;-64
2022/10/05 14:58:22;;;;;;;31.00;4.00;;;;;;;;;;4915589;29;20171;-65
2022/10/05 15:01:02;;;;;;;18.65;3.20;;;;;;;;;;4937003;29;20046;-63
2022/10/05 15:03:39;;;;;;;20.40;3.95;;;;;;;;;;4936225;29;20051;-64
2022/10/05 15:06:08;;;;;;;26.85;3.30;;;;;;;;;;4936357;29;20569;-65
2022/10/05 15:08:52;;;;;;;27.67;4.38;;;;;;;;;;4918152;29;20507;-62
2022/10/05 15:11:34;;;;;;;18.40;3.70;;;;;;;;;;4934895;29;20032;-62
2022/10/05 15:14:02;;;;;;;25.80;3.38;;;;;;;;;;4936256;29;20107;-64
2022/10/05 15:16:40;;;;;;;16.55;3.90;;;;;;;;;;4935609;29;20458;-63
2022/10/05 15:19:19;;;;;;;17.42;4.00;;;;;;;;;;4936319;29;20039;-63
2022/10/05 15:21:49;;;;;;;19.95;3.60;;;;;;;;;;4935735;29;20091;-63
2022/10/05 15:24:23;;;;;;;29.33;4.38;;;;;;;;;;4936280;29;20046;-63
2022/10/05 15:26:51;;;;;;;34.80;5.25;;;;;;;;;;4934626;29;20028;-63
2022/10/05 15:29:18;;;;;;;15.43;3.97;;;;;;;;;;4936236;29;20394;-63
2022/10/05 15:31:51;;;;;;;16.35;4.35;;;;;;;;;;4935208;29;20471;-62
2022/10/05 15:34:47;;;;;;;26.48;6.57;;;;;;;;;;4936582;29;20030;-62